Latest Weather Observations for Braidwood

IDN60901

Issued at 12:51 am EST Sunday 20 August 2017 (issued every 10 minutes, with the page automatically refreshed every 10 minutes)

About weather observations | Map of Canberra area stations | Latest observations for Canberra area | Other Formats
Station Details ID: 069132 Name: BRAIDWOOD RACECOURSE AWS Lat: -35.43 Lon: 149.78 Height: 665.2 m
Data from the previous 72 hours. | See also: Recent months at Braidwood
Date/Time
EST
Temp
°C
App
Temp
°C
Dew
Point
°C
Rel
Hum
%
Delta-T
°C
Wind Press
QNH
hPa
Press
MSL
hPa
Rain since
9am
mm
Dir  Spd
km/h
Gust
km/h
Spd
kts
Gust
kts
20/12:30am 0.4 -3.6 -5.8 63 2.0 SW 7 15 4 8 1022.5 1023.3 0.0
20/12:00am 0.6 -3.2 -5.4 64 2.0 WSW 6 9 3 5 1022.4 1023.2 0.0
 
Date/Time
EST
Temp
°C
App
Temp
°C
Dew
Point
°C
Rel
Hum
%
Delta-T
°C
Wind Press
QNH
hPa
Press
MSL
hPa
Rain since
9am
mm
Dir  Spd
km/h
Gust
km/h
Spd
kts
Gust
kts
19/11:30pm 2.1 -2.1 -4.2 63 2.3 SSW 9 15 5 8 1022.4 1023.2 0.0
19/11:00pm 2.0 -2.2 -4.1 64 2.2 SW 9 15 5 8 1022.5 1023.3 0.0
19/10:30pm 1.6 -2.3 -4.3 65 2.1 SW 7 13 4 7 1022.7 1023.5 0.0
19/10:00pm 2.4 -2.2 -4.3 61 2.3 SW 11 19 6 10 1022.7 1023.5 0.0
19/09:30pm 2.8 -1.8 -4.4 59 2.5 SW 11 19 6 10 1022.7 1023.5 0.0
19/09:00pm 2.8 -1.5 -4.4 59 2.5 SSW 9 13 5 7 1022.6 1023.4 0.0
19/08:30pm 3.9 -0.7 -3.8 57 2.7 SSW 11 20 6 11 1022.6 1023.4 0.0
19/08:00pm 1.8 -1.2 -5.3 59 2.5 WSW 2 7 1 4 1022.4 1023.2 0.0
19/07:30pm 3.4 -0.6 -5.5 52 3.0 SW 7 13 4 7 1022.2 1023.0 0.0
19/07:00pm 4.6 -0.5 -5.2 49 3.4 SSW 13 22 7 12 1021.7 1022.6 0.0
19/06:30pm 5.3 -1.2 -5.7 45 3.8 SSW 20 32 11 17 1021.6 1022.5 0.0
19/06:00pm 5.8 -1.9 -6.1 42 4.1 SSW 26 35 14 19 1021.3 1022.1 0.0
19/05:30pm 6.4 -0.5 -6.2 40 4.4 SSW 22 44 12 24 1020.9 1021.7 0.0
19/05:00pm 6.9 -0.8 -6.1 39 4.5 SSW 26 37 14 20 1020.3 1021.2 0.0
19/04:30pm 7.9 1.1 -5.2 39 4.7 SW 22 33 12 18 1019.9 1020.7 0.0
19/04:00pm 8.6 2.2 -5.2 37 5.0 SSW 20 32 11 17 1019.4 1020.2 0.0
19/03:30pm 8.7 2.2 -5.5 36 5.2 SW 20 33 11 18 1019.2 1020.0 0.0
19/03:00pm 8.9 2.1 -5.0 37 5.1 SW 22 33 12 18 1018.8 1019.6 0.0
19/02:30pm 8.5 1.3 -5.3 37 5.0 SSW 24 33 13 18 1018.8 1019.6 0.0
19/02:00pm 8.3 1.9 -4.5 40 4.7 SSW 20 32 11 17 1018.7 1019.5 0.0
19/01:30pm 8.6 1.5 -4.2 40 4.8 SSW 24 35 13 19 1018.6 1019.4 0.0
19/01:00pm 8.6 2.6 -3.3 43 4.5 SW 19 30 10 16 1018.4 1019.2 0.0
19/12:30pm 8.5 1.6 -3.0 44 4.4 SSW 24 35 13 19 1018.4 1019.2 0.0
19/12:00pm 8.5 1.5 -3.7 42 4.6 SSW 24 39 13 21 1018.4 1019.2 0.0
19/11:30am 8.5 1.9 -3.7 42 4.6 SSW 22 39 12 21 1018.5 1019.3 0.0
19/11:00am 7.0 0.7 -4.1 45 4.1 SSW 20 35 11 19 1018.5 1019.3 0.0
19/10:30am 6.8 0.1 -4.6 44 4.1 SSW 22 39 12 21 1018.6 1019.4 0.0
19/10:00am 6.8 0.1 -4.0 46 4.0 SSW 22 32 12 17 1018.2 1019.0 0.0
19/09:30am 5.9 -0.3 -4.8 46 3.8 SW 19 32 10 17 1018.1 1018.9 0.0
19/09:00am 5.4 -0.9 -4.4 49 3.5 SSW 20 33 11 18 1017.9 1018.7 0.0
19/08:30am 5.0 -1.1 -3.8 53 3.2 SSW 19 28 10 15 1017.7 1018.5 0.0
19/08:00am 3.9 0.1 -3.8 57 2.7 WSW 7 13 4 7 1017.1 1017.9 0.0
19/07:30am 2.5 -1.2 -4.5 60 2.4 WSW 6 9 3 5 1016.7 1017.5 0.0
19/07:00am 2.5 -2.5 -4.7 59 2.5 SW 13 20 7 11 1016.2 1016.9 0.0
19/06:30am 1.6 -3.1 -4.9 62 2.3 S 11 15 6 8 1016.0 1016.7 0.0
19/06:00am 1.6 -1.4 -5.1 61 2.3 ENE 2 6 1 3 1015.5 1016.3 0.0
19/05:30am 2.5 -1.3 -5.4 56 2.8 S 6 13 3 7 1014.9 1015.6 0.0
19/05:00am 2.5 -3.3 -5.1 57 2.7 WSW 17 22 9 12 1014.4 1015.1 0.0
19/04:30am 2.6 -1.7 -5.3 56 2.8 SW 9 15 5 8 1014.2 1014.9 0.0
19/04:00am 3.9 -1.2 -4.8 53 3.0 SW 13 19 7 10 1013.7 1014.4 0.0
19/03:30am 4.1 -3.4 -4.6 53 3.0 WSW 26 41 14 22 1013.2 1013.9 0.0
19/03:00am 3.9 -1.9 -4.3 55 2.9 SW 17 28 9 15 1013.3 1014.0 0.0
19/02:30am 3.4 -2.8 -3.0 63 2.3 W 20 28 11 15 1013.1 1013.8 0.0
19/02:00am 3.9 -3.0 -2.7 62 2.4 W 24 32 13 17 1012.7 1013.4 0.0
19/01:30am 0.7 -2.5 -3.2 75 1.4 WNW 4 11 2 6 1013.0 1013.7 0.0
19/01:00am 1.0 -1.9 -4.0 69 1.8 NW 2 4 1 2 1012.7 1013.4 0.0
19/12:30am 3.3 0.2 -2.6 65 2.2 ESE 4 6 2 3 1012.3 1013.0 0.0
19/12:00am 3.4 -0.1 -2.5 65 2.2 NNW 6 9 3 5 1012.2 1012.9 0.0
 
Date/Time
EST
Temp
°C
App
Temp
°C
Dew
Point
°C
Rel
Hum
%
Delta-T
°C
Wind Press
QNH
hPa
Press
MSL
hPa
Rain since
9am
mm
Dir  Spd
km/h
Gust
km/h
Spd
kts
Gust
kts
18/11:30pm 3.4 -0.7 -2.7 64 2.2 NW 9 20 5 11 1011.9 1012.6 0.0
18/11:00pm 4.3 -1.2 -2.3 62 2.5 WNW 17 24 9 13 1011.8 1012.5 0.0
18/10:30pm 4.8 -0.7 -2.1 61 2.6 W 17 28 9 15 1011.7 1012.4 0.0
18/10:00pm 4.5 -1.5 -1.9 63 2.4 W 20 30 11 16 1011.5 1012.2 0.0
18/09:30pm 4.5 0.6 -1.5 65 2.3 WSW 9 17 5 9 1011.6 1012.3 0.0
18/09:00pm 5.0 -0.5 -1.9 61 2.6 W 17 26 9 14 1011.7 1012.4 0.0
18/08:30pm 4.5 -0.5 -1.3 66 2.2 WNW 15 22 8 12 1011.3 1012.0 0.0
18/08:00pm 4.9 -0.5 -1.1 65 2.3 W 17 22 9 12 1011.0 1011.6 0.0
18/07:30pm 4.7 2.2 -1.3 65 2.3 NE 2 7 1 4 1010.7 1011.4 0.0
18/07:00pm 5.4 1.1 -1.3 62 2.6 WNW 11 28 6 15 1010.0 1010.7 0.0
18/06:30pm 5.5 2.0 -1.2 62 2.6 NNW 7 17 4 9 1009.7 1010.3 0.0
18/06:00pm 5.8 0.1 -1.1 61 2.7 WNW 19 32 10 17 1008.8 1009.5 0.0
18/05:30pm 5.9 -3.6 -1.0 61 2.7 WNW 39 61 21 33 1007.6 1008.3 0.0
18/05:02pm 6.5 -2.6 -0.9 59 2.9 WNW 37 59 20 32 1007.5 1008.2 0.0
18/05:00pm 6.5 -2.6 -0.9 59 2.9 WNW 37 54 20 29 1007.6 1008.3 0.0
18/04:38pm 7.1 -3.2 -1.3 55 3.3 WNW 43 63 23 34 1006.9 1007.5 0.0
18/04:30pm 7.3 -3.6 -1.4 54 3.4 WNW 46 59 25 32 1006.7 1007.3 0.0
18/04:00pm 8.0 -1.5 -0.7 54 3.5 WNW 39 52 21 28 1007.0 1007.6 0.0
18/03:30pm 8.6 -0.5 -0.4 53 3.7 WNW 37 48 20 26 1007.0 1007.6 0.0
18/03:00pm 9.3 0.1 -1.4 47 4.3 WNW 37 52 20 28 1006.6 1007.2 0.0
18/02:30pm 9.3 0.1 -1.4 47 4.3 WNW 37 57 20 31 1006.0 1006.6 0.0
18/02:04pm 9.1 -1.3 -1.6 47 4.3 WNW 43 63 23 34 1006.0 1006.6 0.0
18/02:00pm 9.2 -0.7 -0.9 49 4.1 WNW 41 59 22 32 1006.0 1006.6 0.0
18/01:53pm 9.1 -0.4 -1.0 49 4.1 WNW 39 59 21 32 1006.3 1006.9 0.0
18/01:30pm 9.3 0.6 -0.6 50 4.1 WNW 35 50 19 27 1006.2 1006.8 0.0
18/01:00pm 9.0 0.2 -0.9 50 4.0 WNW 35 52 19 28 1006.3 1006.9 0.0
18/12:30pm 8.9 -0.9 -0.4 52 3.8 WNW 41 61 22 33 1006.4 1007.0 0.0
18/12:22pm 8.6 -0.5 -0.9 51 3.8 WNW 37 57 20 31 1006.3 1006.9 0.0
18/12:00pm 8.6 0.6 0.1 55 3.5 WNW 32 43 17 23 1006.6 1007.2 0.0
18/11:43am 7.9 0.6 -0.3 56 3.3 WNW 28 48 15 26 1006.9 1007.5 0.0
18/11:30am 7.5 -1.3 -0.9 55 3.4 WNW 35 46 19 25 1006.8 1007.4 0.0
18/11:00am 7.9 -0.1 0.2 58 3.2 WNW 32 52 17 28 1006.9 1007.5 0.0
18/10:33am 7.4 -2.0 -0.3 58 3.1 WNW 39 57 21 31 1006.3 1006.9 0.0
18/10:30am 7.4 -1.6 -0.1 59 3.1 WNW 37 50 20 27 1006.3 1006.9 0.0
18/10:00am 7.6 0.0 0.3 60 3.0 WNW 30 52 16 28 1006.6 1007.2 0.0
18/09:30am 7.0 -1.3 0.0 61 2.8 WNW 33 52 18 28 1006.6 1007.2 0.0
18/09:29am 6.9 -1.7 -0.1 61 2.8 WNW 35 54 19 29 1006.6 1007.2 0.0
18/09:00am 6.3 -3.5 0.0 64 2.6 WNW 41 56 22 30 1006.2 1006.8 2.6
18/08:37am 5.7 -3.4 -0.4 65 2.4 WNW 37 56 20 30 1005.8 1006.4 2.6
18/08:30am 5.8 -2.3 0.0 66 2.3 WNW 32 46 17 25 1006.2 1006.8 2.6
18/08:00am 5.0 -3.3 -0.4 68 2.1 NW 33 59 18 32 1005.6 1006.2 2.6
18/07:57am 4.9 -3.2 -0.5 68 2.1 NW 32 59 17 32 1005.5 1006.1 2.6
18/07:30am 4.6 -2.4 -0.2 71 1.9 NW 26 39 14 21 1005.6 1006.2 2.6
18/07:00am 4.0 -3.7 -0.4 73 1.7 NW 30 44 16 24 1005.3 1005.9 2.6
18/06:30am 4.0 -3.3 -0.2 74 1.6 NW 28 43 15 23 1005.3 1005.9 2.6
18/06:00am 3.8 -2.0 -0.4 74 1.6 WNW 20 32 11 17 1005.7 1006.3 2.6
18/05:30am 4.0 -1.3 -0.4 73 1.7 WNW 17 28 9 15 1005.6 1006.2 2.6
18/05:00am 4.3 -1.3 -0.3 72 1.8 NW 19 28 10 15 1005.2 1005.8 2.6
18/04:30am 4.8 -1.0 0.2 72 1.8 WNW 20 28 11 15 1005.2 1005.8 2.6
18/04:00am 4.8 -1.3 0.4 73 1.8 WNW 22 33 12 18 1005.0 1005.6 2.6
18/03:30am 5.1 -0.9 0.9 74 1.7 WNW 22 37 12 20 1004.7 1005.2 2.6
18/03:00am 5.2 -1.6 0.8 73 1.8 WNW 26 35 14 19 1004.8 1005.3 2.6
18/02:33am 5.6 -1.6 1.0 72 1.9 WNW 28 46 15 25 1004.7 1005.2 2.6
18/02:30am 5.5 -1.3 0.9 72 1.9 WNW 26 43 14 23 1004.7 1005.2 2.6
18/02:00am 5.5 -1.7 0.9 72 1.9 NW 28 43 15 23 1004.7 1005.2 2.6
18/01:30am 5.2 -0.2 1.3 76 1.6 NW 19 28 10 15 1005.0 1005.6 2.6
18/01:00am 5.5 -1.6 1.4 75 1.7 NW 28 48 15 26 1005.4 1006.0 2.6
18/12:57am 5.5 -1.6 1.4 75 1.7 NW 28 48 15 26 1005.3 1005.9 2.6
18/12:30am 5.5 -0.4 1.8 77 1.5 NW 22 37 12 20 1005.4 1006.0 2.6
18/12:00am 6.1 -0.4 2.4 77 1.6 NW 26 41 14 22 1005.8 1006.4 2.6
 
Date/Time
EST
Temp
°C
App
Temp
°C
Dew
Point
°C
Rel
Hum
%
Delta-T
°C
Wind Press
QNH
hPa
Press
MSL
hPa
Rain since
9am
mm
Dir  Spd
km/h
Gust
km/h
Spd
kts
Gust
kts
17/11:30pm 5.9 -0.9 3.2 83 1.2 WNW 28 46 15 25 1006.2 1006.8 2.6
17/11:17pm 6.4 -0.3 3.4 81 1.3 WNW 28 48 15 26 1005.9 1006.5 2.4
17/11:00pm 6.4 0.7 3.0 79 1.5 NW 22 35 12 19 1005.8 1006.4 2.2
17/10:30pm 6.4 0.4 3.4 81 1.3 NW 24 39 13 21 1005.7 1006.3 2.2
17/10:00pm 6.8 -0.3 3.6 80 1.4 WNW 30 46 16 25 1006.2 1006.8 2.2
17/09:54pm 7.0 0.3 3.6 79 1.5 NW 28 46 15 25 1006.0 1006.6 2.0
17/09:30pm 6.8 0.8 3.6 80 1.4 WNW 24 37 13 20 1006.2 1006.8 2.0
17/09:00pm 6.8 0.5 3.9 82 1.3 NW 26 50 14 27 1005.9 1006.5 1.8
17/08:30pm 6.9 0.3 4.2 83 1.2 WNW 28 52 15 28 1006.4 1007.0 1.6
17/08:00pm 6.8 -0.2 4.1 83 1.2 WNW 30 48 16 26 1006.2 1006.8 1.0
17/07:40pm 7.4 0.7 3.6 77 1.7 WNW 28 56 15 30 1006.2 1006.8 0.4
17/07:30pm 7.4 1.4 3.6 77 1.7 WNW 24 33 13 18 1006.3 1006.9 0.2
17/07:00pm 8.9 1.1 1.8 61 3.1 WNW 32 52 17 28 1005.5 1006.1 0.0
17/06:56pm 9.3 1.3 1.7 59 3.3 WNW 33 52 18 28 1005.5 1006.1 0.0
17/06:30pm 8.6 3.2 2.6 66 2.6 WNW 20 32 11 17 1005.0 1005.6 0.0
17/06:00pm 10.2 2.4 1.6 55 3.8 WNW 32 52 17 28 1004.8 1005.3 0.0
17/05:38pm 10.9 3.7 0.9 50 4.3 NW 28 46 15 25 1004.2 1004.8 0.0
17/05:30pm 10.8 4.0 0.5 49 4.4 NW 26 46 14 25 1004.0 1004.6 0.0
17/05:00pm 11.2 3.5 0.0 46 4.8 NW 30 54 16 29 1003.6 1004.2 0.0
17/04:30pm 11.9 4.2 -0.3 43 5.2 NW 30 50 16 27 1003.6 1004.2 0.0
17/04:00pm 12.0 2.9 -0.5 42 5.3 NW 37 61 20 33 1003.7 1004.3 0.0
17/03:30pm 12.6 4.0 0.0 42 5.4 NW 35 65 19 35 1003.6 1004.2 0.0
17/03:00pm 12.3 2.5 -0.2 42 5.4 WNW 41 69 22 37 1003.7 1004.3 0.0
17/02:30pm 11.8 3.2 0.0 44 5.0 WNW 35 57 19 31 1003.9 1004.5 0.0
17/02:00pm 13.1 3.1 -1.6 36 6.2 NW 41 67 22 36 1003.5 1004.0 0.0
17/01:30pm 13.1 3.6 -0.5 39 5.8 NW 39 61 21 33 1003.7 1004.3 0.0
17/01:00pm 13.1 3.7 0.2 41 5.6 NW 39 69 21 37 1004.2 1004.8 0.0
17/12:30pm 12.3 2.2 0.4 44 5.1 WNW 43 61 23 33 1004.8 1005.3 0.0
17/12:00pm 12.0 2.5 1.9 50 4.5 NW 41 65 22 35 1005.4 1006.0 0.0
17/11:32am 11.4 3.6 1.4 50 4.4 NW 32 52 17 28 1005.7 1006.3 0.0
17/11:30am 12.5 4.6 2.4 50 4.6 NW 33 52 18 28 1005.6 1006.2 0.0
17/11:00am 11.8 4.2 2.8 54 4.1 NW 32 56 17 30 1006.2 1006.8 0.0
17/10:30am 11.6 2.2 2.4 53 4.1 NW 41 61 22 33 1006.6 1007.2 0.0
17/10:04am 10.6 1.9 2.2 56 3.7 NW 37 57 20 31 1006.8 1007.4 0.0
17/10:00am 10.9 2.2 2.2 55 3.9 NW 37 54 20 29 1006.8 1007.4 0.0
17/09:30am 10.6 2.7 2.4 57 3.6 NW 33 52 18 28 1006.8 1007.4 0.0
17/09:10am 10.0 2.1 2.1 58 3.5 NW 33 54 18 29 1006.8 1007.4 0.0
17/09:00am 9.8 2.5 2.4 60 3.3 NW 30 43 16 23 1007.0 1007.6 0.0
17/08:40am 9.3 1.6 2.2 61 3.1 NW 32 52 17 28 1007.1 1007.7 0.0
17/08:30am 9.2 1.8 2.1 61 3.1 NW 30 44 16 24 1006.9 1007.5 0.0
17/08:00am 8.5 0.5 1.9 63 2.9 NW 33 48 18 26 1006.7 1007.3 0.0
17/07:34am 7.8 -0.2 1.9 66 2.5 NW 33 54 18 29 1006.2 1006.8 0.0
17/07:30am 7.6 -0.4 1.7 66 2.5 NW 33 50 18 27 1006.2 1006.8 0.0
17/07:10am 7.4 -0.6 1.7 67 2.4 NW 33 56 18 30 1005.9 1006.5 0.0
17/07:00am 7.2 -0.8 1.7 68 2.3 NW 33 46 18 25 1005.8 1006.4 0.0
17/06:30am 7.3 -0.5 1.6 67 2.4 NW 32 48 17 26 1005.4 1006.0 0.0
17/06:00am 7.7 -0.3 1.5 65 2.6 NW 33 50 18 27 1005.4 1006.0 0.0
17/05:38am 7.8 0.4 1.6 65 2.6 WNW 30 50 16 27 1005.6 1006.2 0.0
17/05:30am 7.9 0.1 1.5 64 2.7 WNW 32 48 17 26 1005.5 1006.1 0.0
17/05:21am 7.9 0.1 1.5 64 2.7 WNW 32 52 17 28 1005.5 1006.1 0.0
17/05:00am 8.0 0.0 1.6 64 2.7 NW 33 50 18 27 1005.5 1006.1 0.0
17/04:30am 7.9 0.1 1.7 65 2.6 WNW 32 52 17 28 1005.3 1005.9 0.0
17/04:04am 8.2 -0.2 1.6 63 2.8 NW 35 54 19 29 1005.3 1005.9 0.0
17/04:00am 8.2 -0.9 1.8 64 2.8 WNW 39 54 21 29 1005.2 1005.8 0.0
17/03:30am 8.1 0.2 2.1 66 2.6 NW 33 50 18 27 1005.4 1006.0 0.0
17/03:00am 8.1 -0.6 2.1 66 2.6 WNW 37 57 20 31 1005.6 1006.2 0.0
17/02:30am 8.2 -0.1 2.2 66 2.6 WNW 35 57 19 31 1005.8 1006.4 0.0
17/02:01am 8.3 0.4 2.3 66 2.6 NW 33 54 18 29 1006.2 1006.8 0.0
17/02:00am 8.2 0.3 2.2 66 2.6 NW 33 50 18 27 1006.2 1006.8 0.0
17/01:30am 8.4 0.5 2.2 65 2.7 NW 33 57 18 31 1006.3 1006.9 0.0
17/01:04am 8.4 0.7 2.4 66 2.6 NW 32 50 17 27 1006.3 1006.9 0.0
17/01:00am 8.3 0.6 2.5 67 2.5 NW 32 44 17 24 1006.4 1007.0 0.0

Latest Capital City Observations: Canberra | Sydney | Melbourne | Brisbane | Adelaide | Perth | Hobart | Darwin

Other Formats:

Comma delimited format used in spreadsheet applications
http://www.bom.gov.au/fwo/IDN60903/IDN60903.94927.axf

JavaScript Object Notation format (JSON) in row-major order
http://www.bom.gov.au/fwo/IDN60903/IDN60903.94927.json